Time;durP1;ratioP1;P1;durP2;ratioP2;P2;SDS_P1;SDS_P2;PMS_P1;PMS_P2;Temp;Humidity;BMP_temperature;BMP_pressure;BME280_temperature;BME280_humidity;BME280_pressure;Samples;Min_cycle;Max_cycle;Signal;HPM_P1;HPM_P2
2021/08/10 00:00:48;;;;;;;;;4.75;3.25;;;;;22.98;47.04;101204.38;5056671;28;45397;-45
2021/08/10 00:03:14;;;;;;;;;4.00;4.00;;;;;22.98;47.01;101207.03;5056125;28;46094;-44
2021/08/10 00:05:39;;;;;;;;;3.50;3.50;;;;;22.97;47.11;101215.88;5056806;28;45285;-53
2021/08/10 00:08:04;;;;;;;;;5.25;4.50;;;;;22.97;47.41;101213.25;5056423;28;45331;-46
2021/08/10 00:10:31;;;;;;;;;7.00;5.75;;;;;22.97;47.43;101211.44;5056618;28;45226;-50
2021/08/10 00:12:56;;;;;;;;;4.75;4.00;;;;;22.97;47.21;101205.31;5056111;28;46082;-45
2021/08/10 00:15:22;;;;;;;;;5.00;5.00;;;;;22.97;47.34;101200.88;5056072;28;45775;-48
2021/08/10 00:17:47;;;;;;;;;4.50;4.50;;;;;22.94;47.13;101192.28;5056216;28;45414;-50
2021/08/10 00:20:13;;;;;;;;;5.00;5.00;;;;;22.97;47.11;101205.31;5056430;28;45543;-45
2021/08/10 00:22:39;;;;;;;;;4.50;3.50;;;;;22.98;47.29;101204.38;5056440;28;45405;-46
2021/08/10 00:25:05;;;;;;;;;5.50;4.25;;;;;22.97;47.04;101197.38;5056124;28;45454;-46
2021/08/10 00:27:30;;;;;;;;;5.25;3.00;;;;;22.98;47.27;101196.44;5056236;28;45336;-49
2021/08/10 00:29:56;;;;;;;;;3.50;3.00;;;;;22.97;47.35;101206.16;5056367;28;45558;-58
2021/08/10 00:32:21;;;;;;;;;3.00;3.00;;;;;22.97;47.27;101200.03;5055815;28;46295;-63
2021/08/10 00:34:46;;;;;;;;;3.00;3.00;;;;;22.97;47.16;101202.69;5055932;28;45293;-55
2021/08/10 00:37:12;;;;;;;;;5.50;5.25;;;;;22.97;47.33;101195.56;5056206;28;45213;-60
2021/08/10 00:39:37;;;;;;;;;5.00;3.25;;;;;22.97;47.49;101192.09;5056140;28;45603;-59
2021/08/10 00:42:04;;;;;;;;;5.00;4.75;;;;;22.96;47.42;101193.03;5055821;28;45392;-60
2021/08/10 00:44:29;;;;;;;;;5.75;2.75;;;;;22.97;47.42;101195.56;5055804;28;45664;-63
2021/08/10 00:46:55;;;;;;;;;4.00;3.75;;;;;22.97;47.49;101195.56;5055939;28;45297;-57
2021/08/10 00:49:20;;;;;;;;;5.25;4.75;;;;;22.97;47.47;101198.22;5056079;28;45525;-60
2021/08/10 00:51:50;;;;;;;;;5.50;4.00;;;;;22.97;47.44;101190.28;5055601;28;45383;-58
2021/08/10 00:54:15;;;;;;;;;6.00;5.00;;;;;22.96;47.27;101204.44;5055753;28;45698;-55
2021/08/10 00:56:41;;;;;;;;;5.50;5.00;;;;;22.97;47.11;101205.31;5056093;28;45517;-48
2021/08/10 00:59:06;;;;;;;;;5.50;3.00;;;;;22.98;47.48;101212.31;5055840;28;45196;-61
2021/08/10 01:01:32;;;;;;;;;9.75;7.00;;;;;22.97;47.35;101211.44;5055531;28;46761;-59
2021/08/10 01:03:57;;;;;;;;;4.00;3.00;;;;;22.98;47.58;101220.25;5055601;28;45428;-62
2021/08/10 01:06:38;;;;;;;;;6.50;5.00;;;;;22.97;47.43;101227.31;5055731;28;45473;-62
2021/08/10 01:09:27;;;;;;;;;5.00;4.00;;;;;22.97;47.46;101226.47;5055943;28;45425;-53
2021/08/10 01:12:04;;;;;;;;;6.00;4.50;;;;;22.97;47.40;101229.09;5057734;28;45565;-52
2021/08/10 01:15:00;;;;;;;;;5.00;5.00;;;;;22.98;47.67;101241.38;5058887;28;45696;-55
2021/08/10 01:17:35;;;;;;;;;4.75;4.75;;;;;22.97;47.67;101229.09;5058853;28;45387;-51
2021/08/10 01:20:18;;;;;;;;;4.25;4.25;;;;;22.97;47.41;101237.03;5059003;28;45557;-60
2021/08/10 01:22:47;;;;;;;;;6.75;4.00;;;;;22.98;47.58;101241.38;5059086;28;45596;-49
2021/08/10 01:25:41;;;;;;;;;8.00;5.00;;;;;22.97;47.57;101232.59;5059050;28;45735;-54
2021/08/10 01:28:30;;;;;;;;;4.25;4.25;;;;;22.97;47.37;101235.22;5058791;28;45434;-53
2021/08/10 01:31:02;;;;;;;;;4.00;3.75;;;;;22.98;47.82;101231.66;5041156;28;45845;-48
2021/08/10 01:33:31;;;;;;;;;4.50;4.50;;;;;22.95;47.87;101217.78;5040429;28;47177;-53
2021/08/10 01:35:57;;;;;;;;;4.00;4.00;;;;;22.95;47.94;101212.47;5058631;28;45371;-59
2021/08/10 01:38:25;;;;;;;;;3.75;3.25;;;;;22.97;47.82;101219.38;5058595;28;45493;-53
2021/08/10 01:40:51;;;;;;;;;4.00;4.00;;;;;22.96;48.04;101215.03;5058766;28;45363;-57
2021/08/10 01:43:17;;;;;;;;;4.00;4.00;;;;;22.97;48.06;101221.19;5058624;28;45643;-56
2021/08/10 01:45:43;;;;;;;;;5.00;5.00;;;;;22.98;47.96;101215.78;5058690;28;45323;-53
2021/08/10 01:48:11;;;;;;;;;4.00;4.00;;;;;22.96;48.19;101212.38;5058612;28;45442;-54
2021/08/10 01:50:37;;;;;;;;;4.00;3.00;;;;;22.97;48.03;101210.59;5058661;28;45561;-55
2021/08/10 01:53:04;;;;;;;;;5.00;3.75;;;;;22.97;47.81;101219.38;5058307;28;45790;-57
2021/08/10 01:55:30;;;;;;;;;4.50;4.50;;;;;22.97;48.10;101214.09;5058389;28;45471;-62
2021/08/10 01:57:57;;;;;;;;;7.00;4.25;;;;;22.98;48.51;101217.59;5058150;28;45340;-48
2021/08/10 02:00:23;;;;;;;;;4.00;4.00;;;;;22.97;48.07;101227.31;5058475;28;45521;-55
2021/08/10 02:02:49;;;;;;;;;5.00;4.50;;;;;22.97;48.40;101231.75;5058129;28;45357;-55
2021/08/10 02:05:15;;;;;;;;;6.00;6.00;;;;;22.94;48.15;101229.28;5040416;28;45647;-52
2021/08/10 02:07:42;;;;;;;;;5.75;4.50;;;;;22.97;48.33;101232.59;5058208;28;45328;-51
2021/08/10 02:10:09;;;;;;;;;8.00;4.00;;;;;22.97;48.60;101229.09;5058383;28;45563;-49
2021/08/10 02:12:37;;;;;;;;;8.75;5.50;;;;;22.97;48.23;101227.31;5057899;28;46655;-48
2021/08/10 02:15:02;;;;;;;;;5.00;5.00;;;;;22.98;48.67;101236.09;5057857;28;45374;-51
2021/08/10 02:17:28;;;;;;;;;5.50;4.00;;;;;22.96;48.81;101224.75;5058032;28;45419;-49
2021/08/10 02:19:53;;;;;;;;;4.75;3.00;;;;;22.96;48.79;101215.03;5058403;28;45521;-50
2021/08/10 02:22:20;;;;;;;;;6.00;4.00;;;;;22.95;48.83;101213.31;5057723;28;46712;-50
2021/08/10 02:25:03;;;;;;;;;5.25;5.00;;;;;22.98;49.05;101217.59;5058174;28;45879;-49
2021/08/10 02:27:51;;;;;;;;;4.00;4.00;;;;;22.98;48.87;101213.16;5057928;28;45402;-54
2021/08/10 02:30:22;;;;;;;;;3.00;3.00;;;;;22.96;48.92;101209.72;5040440;28;45286;-52
2021/08/10 02:32:49;;;;;;;;;5.50;4.00;;;;;22.98;49.34;101214.94;5057978;28;46585;-53
2021/08/10 02:35:19;;;;;;;;;5.25;4.75;;;;;22.97;49.34;101216.72;5057995;28;45370;-55
2021/08/10 02:37:46;;;;;;;;;7.00;4.75;;;;;22.97;49.20;101218.53;5057999;28;45371;-48
2021/08/10 02:40:16;;;;;;;;;5.75;5.75;;;;;22.97;49.25;101224.66;5057964;28;45582;-59
2021/08/10 02:42:45;;;;;;;;;4.25;4.25;;;;;22.97;49.46;101210.59;5057435;28;45813;-55
2021/08/10 02:45:11;;;;;;;;;7.00;5.00;;;;;22.97;49.37;101211.44;5057503;28;45408;-58
2021/08/10 02:47:36;;;;;;;;;4.75;4.25;;;;;22.97;49.54;101213.25;5057583;28;45707;-58
2021/08/10 02:50:03;;;;;;;;;4.75;4.75;;;;;22.97;49.45;101215.88;5057637;28;45584;-50
2021/08/10 02:52:28;;;;;;;;;4.75;4.75;;;;;22.96;49.68;101208.91;5057362;28;46616;-57
2021/08/10 02:54:53;;;;;;;;;5.75;4.50;;;;;22.97;49.52;101213.25;5057150;28;47690;-61
2021/08/10 02:57:32;;;;;;;;;7.75;5.75;;;;;22.97;49.80;101210.59;5057664;28;45380;-51
2021/08/10 03:00:05;;;;;;;;;4.00;4.00;;;;;22.97;49.99;101210.59;5057689;28;45491;-49
2021/08/10 03:02:34;;;;;;;;;10.00;5.75;;;;;22.96;49.63;101217.66;5039229;28;47216;-60
2021/08/10 03:05:10;;;;;;;;;4.00;4.00;;;;;22.97;50.03;101210.59;5057212;28;45757;-48
2021/08/10 03:07:39;;;;;;;;;4.75;4.00;;;;;22.98;49.91;101204.38;5057265;28;45688;-47
2021/08/10 03:10:06;;;;;;;;;4.00;4.00;;;;;22.96;49.95;101208.91;5039374;28;45363;-45
2021/08/10 03:12:36;;;;;;;;;5.00;5.00;;;;;22.96;50.08;101203.63;5056921;28;45374;-51
2021/08/10 03:15:02;;;;;;;;;3.00;2.00;;;;;22.96;50.26;101206.25;5056959;28;45976;-48
2021/08/10 03:17:31;;;;;;;;;6.50;5.25;;;;;22.96;50.16;101217.66;5057073;28;45447;-46
2021/08/10 03:19:58;;;;;;;;;6.50;4.00;;;;;22.96;50.44;101224.75;5057302;28;45512;-53
2021/08/10 03:22:26;;;;;;;;;8.00;6.25;;;;;22.96;50.33;101222.13;5056847;28;45554;-49
2021/08/10 03:24:53;;;;;;;;;5.00;5.00;;;;;22.95;50.58;101220.41;5057237;28;45245;-46
2021/08/10 03:27:19;;;;;;;;;5.25;4.25;;;;;22.95;50.73;101217.78;5057241;28;45344;-47
2021/08/10 03:29:46;;;;;;;;;6.50;4.00;;;;;22.95;50.57;101221.25;5057052;28;45351;-54
2021/08/10 03:32:14;;;;;;;;;5.75;4.25;;;;;22.95;50.55;101204.56;5055538;28;46535;-56
2021/08/10 03:34:41;;;;;;;;;4.25;4.25;;;;;22.94;50.63;101211.63;5056039;28;45210;-47
2021/08/10 03:37:07;;;;;;;;;5.50;5.50;;;;;22.93;50.53;101212.56;5056743;28;45480;-45
2021/08/10 03:39:33;;;;;;;;;5.00;5.00;;;;;22.94;51.01;101202.84;5057065;28;45574;-47
2021/08/10 03:42:01;;;;;;;;;6.00;3.75;;;;;22.94;50.85;101206.31;5056295;28;45482;-48
2021/08/10 03:44:26;;;;;;;;;6.00;5.00;;;;;22.92;51.06;101196.78;5056746;28;45709;-49
2021/08/10 03:46:52;;;;;;;;;5.25;4.00;;;;;22.92;51.04;101200.31;5057034;28;45292;-45
2021/08/10 03:49:22;;;;;;;;;6.00;6.00;;;;;22.90;50.92;101194.25;5038850;28;45552;-46
2021/08/10 03:51:48;;;;;;;;;5.75;4.00;;;;;22.90;50.99;101202.19;5038674;28;47682;-52
2021/08/10 03:54:14;;;;;;;;;7.00;4.50;;;;;22.90;51.04;101209.25;5056386;28;45271;-52
2021/08/10 03:56:42;;;;;;;;;7.50;5.00;;;;;22.91;50.86;101203.03;5056536;28;45454;-47
2021/08/10 03:59:11;;;;;;;;;5.00;5.00;;;;;22.90;51.45;101204.84;5056815;28;45272;-45
2021/08/10 04:01:37;;;;;;;;;4.00;4.00;;;;;22.90;50.89;101207.47;5056279;28;46331;-54
2021/08/10 04:04:03;;;;;;;;;5.00;4.00;;;;;22.91;51.10;101210.94;5056203;28;45744;-51
2021/08/10 04:06:31;;;;;;;;;4.50;3.00;;;;;22.90;51.34;101215.41;5056574;28;45876;-53
2021/08/10 04:08:59;;;;;;;;;5.25;5.25;;;;;22.91;51.22;101216.25;5056596;28;45284;-58
2021/08/10 04:11:24;;;;;;;;;4.00;4.00;;;;;22.92;51.05;101212.66;5056078;28;47335;-51
2021/08/10 04:13:50;;;;;;;;;6.00;6.00;;;;;22.89;51.27;101216.34;5056446;28;45312;-57
2021/08/10 04:16:17;;;;;;;;;5.50;5.00;;;;;22.90;51.34;101206.59;5056251;28;45764;-55
2021/08/10 04:18:43;;;;;;;;;6.25;5.00;;;;;22.89;51.42;101216.34;5056419;28;45493;-54
2021/08/10 04:21:08;;;;;;;;;4.25;4.25;;;;;22.89;51.86;101216.34;5056011;28;46086;-49
2021/08/10 04:23:34;;;;;;;;;5.00;4.25;;;;;22.90;51.74;101219.81;5056044;28;45380;-45
2021/08/10 04:25:59;;;;;;;;;5.25;4.00;;;;;22.89;51.31;101223.41;5056192;28;45442;-47
2021/08/10 04:28:24;;;;;;;;;4.50;4.50;;;;;22.89;51.16;101211.06;5056563;28;45461;-57
2021/08/10 04:30:50;;;;;;;;;5.75;4.00;;;;;22.89;51.14;101224.28;5038027;28;46043;-59
2021/08/10 04:33:15;;;;;;;;;5.00;5.00;;;;;22.88;51.79;101219.91;5056000;28;45812;-63
2021/08/10 04:35:41;;;;;;;;;5.25;5.00;;;;;22.89;51.49;101218.13;5056088;28;45266;-60
2021/08/10 04:38:06;;;;;;;;;10.50;5.50;;;;;22.88;51.55;101221.69;5056091;28;45510;-63
2021/08/10 04:40:32;;;;;;;;;5.50;5.50;;;;;22.88;51.64;101221.69;5037850;28;47493;-62
2021/08/10 04:42:59;;;;;;;;;3.50;3.50;;;;;22.89;51.76;101226.03;5055901;28;45328;-62
2021/08/10 04:45:24;;;;;;;;;5.25;4.00;;;;;22.88;51.84;101226.97;5056324;28;45320;-63
2021/08/10 04:47:52;;;;;;;;;5.00;5.00;;;;;22.88;51.58;101226.97;5059714;28;45264;-61
2021/08/10 04:50:17;;;;;;;;;5.75;5.25;;;;;22.88;51.38;101226.97;5059308;28;47170;-61
2021/08/10 04:52:43;;;;;;;;;5.00;5.00;;;;;22.88;51.93;101232.28;5059263;28;45352;-50
2021/08/10 04:55:08;;;;;;;;;6.00;6.00;;;;;22.87;51.81;101225.31;5059326;28;45331;-45
2021/08/10 04:57:34;;;;;;;;;5.00;5.00;;;;;22.87;51.69;101236.72;5059345;28;45403;-44
2021/08/10 05:00:00;;;;;;;;;4.50;4.50;;;;;22.88;51.75;101235.78;5058914;28;52483;-45
2021/08/10 05:02:26;;;;;;;;;5.00;5.00;;;;;22.88;51.74;101234.91;5059305;28;45363;-55
2021/08/10 05:04:51;;;;;;;;;6.00;6.00;;;;;22.86;51.72;101235.00;5059251;28;45358;-57
2021/08/10 05:07:16;;;;;;;;;5.25;5.25;;;;;22.88;51.65;101237.56;5059338;28;45894;-55
2021/08/10 05:09:42;;;;;;;;;4.75;4.75;;;;;22.87;52.17;101231.44;5059020;28;46757;-54
2021/08/10 05:12:08;;;;;;;;;8.25;5.00;;;;;22.89;51.60;101234.84;5058873;28;45232;-56
2021/08/10 05:14:33;;;;;;;;;4.50;4.50;;;;;22.88;51.89;101242.84;5058961;28;45260;-57
2021/08/10 05:16:59;;;;;;;;;4.25;4.25;;;;;22.87;51.57;101241.16;5059088;28;45352;-59
2021/08/10 05:19:24;;;;;;;;;4.25;4.25;;;;;22.89;51.99;101239.25;5059080;28;46357;-46
2021/08/10 05:21:49;;;;;;;;;4.50;4.50;;;;;22.89;51.73;101239.25;5058853;28;45231;-57
2021/08/10 05:24:15;;;;;;;;;4.00;4.00;;;;;22.88;51.91;101232.28;5058818;28;45182;-49
2021/08/10 05:26:40;;;;;;;;;6.00;6.00;;;;;22.87;51.71;101230.59;5058931;28;45270;-51
2021/08/10 05:29:05;;;;;;;;;5.00;5.00;;;;;22.87;51.82;101242.00;5058463;28;49145;-46
2021/08/10 05:31:31;;;;;;;;;4.75;4.75;;;;;22.88;51.60;101242.84;5058495;28;45252;-48
2021/08/10 05:33:56;;;;;;;;;6.00;5.00;;;;;22.89;51.97;101247.19;5058988;28;45178;-44
2021/08/10 05:36:21;;;;;;;;;5.50;4.50;;;;;22.88;52.02;101237.56;5058907;28;45545;-55
2021/08/10 05:38:49;;;;;;;;;4.00;4.00;;;;;22.88;52.07;101242.84;5058342;28;46845;-50
2021/08/10 05:41:15;;;;;;;;;4.50;4.50;;;;;22.87;52.24;101247.28;5058512;28;45351;-55
2021/08/10 05:43:41;;;;;;;;;5.25;5.00;;;;;22.87;51.81;101241.16;5058497;28;45446;-53
2021/08/10 05:46:06;;;;;;;;;6.00;6.00;;;;;22.87;52.36;101241.16;5058683;28;45280;-55
2021/08/10 05:48:31;;;;;;;;;5.25;4.50;;;;;22.89;52.17;101245.41;5058308;28;46173;-48
2021/08/10 05:50:58;;;;;;;;;5.50;5.50;;;;;22.88;52.28;101237.56;5058695;28;45224;-52
2021/08/10 05:53:23;;;;;;;;;6.00;6.00;;;;;22.89;52.23;101239.25;5040458;28;45368;-58
2021/08/10 05:55:48;;;;;;;;;5.00;4.00;;;;;22.88;52.03;101235.78;5058545;28;45485;-54
2021/08/10 05:58:14;;;;;;;;;4.75;4.75;;;;;22.89;52.32;101233.97;5057736;28;45851;-57
2021/08/10 06:00:39;;;;;;;;;4.75;4.75;;;;;22.87;52.10;101235.88;5058055;28;49429;-48
2021/08/10 06:03:04;;;;;;;;;6.25;3.75;;;;;22.87;52.45;101236.72;5058272;28;45315;-46
2021/08/10 06:05:30;;;;;;;;;5.00;4.00;;;;;22.90;52.02;101243.59;5058429;28;45320;-44
2021/08/10 06:07:55;;;;;;;;;4.00;4.00;;;;;22.89;52.20;101241.91;5058291;28;46325;-49
2021/08/10 06:10:20;;;;;;;;;5.50;5.00;;;;;22.89;51.96;101239.25;5058080;28;45350;-50
2021/08/10 06:12:46;;;;;;;;;5.75;5.75;;;;;22.90;52.28;101243.59;5058290;28;45372;-47
2021/08/10 06:15:11;;;;;;;;;5.25;4.00;;;;;22.89;52.27;101250.69;5058263;28;45646;-47
2021/08/10 06:17:37;;;;;;;;;7.50;7.50;;;;;22.90;52.33;101251.53;5057726;28;46502;-49
2021/08/10 06:20:04;;;;;;;;;6.50;6.50;;;;;22.91;52.39;101247.97;5057960;28;45435;-54
2021/08/10 06:22:29;;;;;;;;;7.00;7.00;;;;;22.90;52.42;101246.25;5058304;28;45430;-60
2021/08/10 06:24:54;;;;;;;;;5.75;4.75;;;;;22.90;52.43;101248.91;5058273;28;45277;-52
2021/08/10 06:27:22;;;;;;;;;6.25;5.25;;;;;22.90;52.50;101246.25;5057819;28;46339;-49
2021/08/10 06:29:47;;;;;;;;;6.50;5.00;;;;;22.90;52.22;101246.25;5057739;28;45206;-61
2021/08/10 06:32:13;;;;;;;;;5.50;4.25;;;;;22.90;52.65;101248.91;5057466;28;51260;-52
2021/08/10 06:34:38;;;;;;;;;6.75;4.00;;;;;22.90;52.48;101243.59;5058130;28;45300;-60
2021/08/10 06:37:03;;;;;;;;;8.00;6.00;;;;;22.89;52.62;101242.78;5039358;28;47888;-58
2021/08/10 06:39:29;;;;;;;;;5.00;5.00;;;;;22.90;52.36;101243.59;5057939;28;45269;-54
2021/08/10 06:41:54;;;;;;;;;4.50;4.50;;;;;22.91;52.38;101248.81;5057848;28;45290;-53
2021/08/10 06:44:19;;;;;;;;;5.25;5.25;;;;;22.90;52.00;101246.25;5057454;28;47249;-50
2021/08/10 06:46:45;;;;;;;;;3.25;3.25;;;;;22.88;52.63;101234.91;5057303;28;45510;-50
2021/08/10 06:49:10;;;;;;;;;5.00;5.00;;;;;22.91;52.55;101245.31;5057491;28;45253;-52
2021/08/10 06:51:36;;;;;;;;;3.25;3.25;;;;;22.92;52.45;101241.72;5057358;28;45357;-51
2021/08/10 06:54:01;;;;;;;;;5.75;5.75;;;;;22.92;52.79;101244.38;5039345;28;45538;-52
2021/08/10 06:56:27;;;;;;;;;6.25;5.50;;;;;22.90;52.60;101240.97;5057165;28;46457;-45
2021/08/10 06:58:52;;;;;;;;;7.00;7.00;;;;;22.91;52.42;101245.31;5057290;28;45480;-47
2021/08/10 07:01:17;;;;;;;;;4.50;4.50;;;;;22.91;52.47;101240.03;5039251;28;45449;-49
2021/08/10 07:03:43;;;;;;;;;3.75;3.50;;;;;22.91;52.39;101247.97;5057442;28;45386;-59
2021/08/10 07:06:10;;;;;;;;;5.00;5.00;;;;;22.91;52.60;101240.03;5056922;28;46624;-56
2021/08/10 07:08:35;;;;;;;;;5.75;5.00;;;;;22.91;52.33;101254.09;5056064;28;45705;-49
2021/08/10 07:11:00;;;;;;;;;4.00;4.00;;;;;22.92;52.45;101249.66;5057475;28;45367;-48
2021/08/10 07:13:26;;;;;;;;;5.75;3.00;;;;;22.92;52.59;101250.53;5057145;28;45643;-47
2021/08/10 07:15:52;;;;;;;;;6.75;6.00;;;;;22.91;52.66;101248.81;5056648;28;46447;-45
2021/08/10 07:18:17;;;;;;;;;7.75;5.25;;;;;22.92;52.53;101252.31;5056706;28;45350;-49
2021/08/10 07:20:43;;;;;;;;;9.50;6.00;;;;;22.92;52.46;101254.94;5057024;28;45194;-49
2021/08/10 07:23:08;;;;;;;;;6.00;4.75;;;;;22.92;52.50;101255.81;5057317;28;45350;-54
2021/08/10 07:25:33;;;;;;;;;4.00;4.00;;;;;22.92;52.41;101260.22;5056796;28;45612;-45
2021/08/10 07:27:59;;;;;;;;;5.00;5.00;;;;;22.94;52.21;101263.66;5057157;28;45301;-57
2021/08/10 07:30:24;;;;;;;;;6.75;5.25;;;;;22.94;52.62;101263.66;5056762;28;45250;-55
2021/08/10 07:32:50;;;;;;;;;7.25;5.00;;;;;22.95;52.30;101265.34;5038833;28;45637;-54
2021/08/10 07:35:15;;;;;;;;;5.00;5.00;;;;;22.95;52.32;101263.53;5056549;28;46348;-46
2021/08/10 07:37:42;;;;;;;;;6.50;5.25;;;;;22.95;52.37;101260.06;5056600;28;45236;-59
2021/08/10 07:40:10;;;;;;;;;6.25;5.00;;;;;22.96;52.31;101261.75;5056840;28;45347;-52
2021/08/10 07:42:36;;;;;;;;;6.75;5.75;;;;;22.95;52.64;101265.34;5056950;28;45556;-48
2021/08/10 07:45:01;;;;;;;;;5.75;5.50;;;;;22.96;52.04;101270.53;5056788;28;45457;-56
2021/08/10 07:47:26;;;;;;;;;6.50;6.00;;;;;22.96;52.27;101267.88;5056612;28;45388;-50
2021/08/10 07:49:52;;;;;;;;;5.25;5.25;;;;;22.95;52.21;101268.00;5056390;28;47570;-46
2021/08/10 07:52:17;;;;;;;;;6.25;6.25;;;;;22.96;52.30;101272.34;5056599;28;45564;-48
2021/08/10 07:54:43;;;;;;;;;7.00;7.00;;;;;22.95;52.51;101268.81;5056529;28;45362;-59
2021/08/10 07:57:09;;;;;;;;;6.00;6.00;;;;;22.96;52.42;101267.06;5056319;28;45268;-55
2021/08/10 07:59:34;;;;;;;;;6.25;6.00;;;;;22.97;52.08;101264.31;5056963;28;45189;-58
2021/08/10 08:02:00;;;;;;;;;6.00;4.50;;;;;22.98;52.22;101279.22;5056767;28;45260;-51
2021/08/10 08:04:25;;;;;;;;;6.50;5.25;;;;;22.97;52.11;101271.41;5056195;28;46732;-54
2021/08/10 08:06:50;;;;;;;;;7.00;7.00;;;;;22.98;52.22;101275.75;5056354;28;45331;-57
2021/08/10 08:09:16;;;;;;;;;5.75;4.25;;;;;22.98;52.44;101270.47;5056491;28;45331;-59
2021/08/10 08:11:41;;;;;;;;;5.25;5.25;;;;;22.98;52.04;101281.03;5038459;28;45551;-61
2021/08/10 08:14:06;;;;;;;;;5.00;4.25;;;;;22.97;52.36;101276.69;5056060;28;49890;-44
2021/08/10 08:16:32;;;;;;;;;6.25;6.25;;;;;22.99;52.10;101274.78;5056331;28;45317;-47
2021/08/10 08:18:57;;;;;;;;;9.25;7.25;;;;;23.00;52.23;101273.84;5056108;28;45370;-50
2021/08/10 08:21:24;;;;;;;;;5.50;5.00;;;;;22.99;52.14;101273.00;5059406;28;45383;-47
2021/08/10 08:23:50;;;;;;;;;5.75;5.75;;;;;23.01;52.13;101272.91;5059744;28;46170;-61
2021/08/10 08:26:21;;;;;;;;;6.00;6.00;;;;;23.02;52.07;101271.97;5059680;28;45481;-55
2021/08/10 08:28:47;;;;;;;;;6.25;5.25;;;;;23.02;52.24;101274.59;5059997;28;45333;-57
2021/08/10 08:31:13;;;;;;;;;7.00;6.75;;;;;23.04;52.23;101274.53;5041816;28;45729;-54
2021/08/10 08:33:38;;;;;;;;;5.75;5.75;;;;;23.04;51.98;101271.88;5059512;28;45410;-50
2021/08/10 08:36:03;;;;;;;;;7.25;5.75;;;;;23.03;52.33;101276.31;5041763;28;45428;-52
2021/08/10 08:38:29;;;;;;;;;6.00;6.00;;;;;23.04;52.16;101275.38;5059522;28;45393;-55
2021/08/10 08:40:54;;;;;;;;;5.00;5.00;;;;;23.04;51.95;101270.09;5059807;28;45621;-54
2021/08/10 08:43:22;;;;;;;;;7.00;6.00;;;;;23.04;52.12;101270.09;5059314;28;45697;-54
2021/08/10 08:45:49;;;;;;;;;5.00;5.00;;;;;23.04;52.04;101270.09;5059480;28;45378;-55
2021/08/10 08:48:15;;;;;;;;;6.00;6.00;;;;;23.04;52.23;101267.44;5059431;28;45332;-52
2021/08/10 08:50:46;;;;;;;;;5.25;5.25;;;;;23.04;52.33;101263.97;5059599;28;45494;-48
2021/08/10 08:53:14;;;;;;;;;5.50;5.00;;;;;23.05;52.28;101269.16;5059315;28;45482;-54
2021/08/10 08:55:44;;;;;;;;;8.00;6.00;;;;;23.05;52.32;101266.50;5059252;28;45778;-49
2021/08/10 08:58:09;;;;;;;;;5.25;5.25;;;;;23.05;52.11;101263.84;5059331;28;45455;-45
2021/08/10 09:00:34;;;;;;;;;6.25;4.75;;;;;23.07;52.24;101258.47;5059725;28;45427;-49
2021/08/10 09:03:00;;;;;;;;;6.50;4.75;;;;;23.07;52.43;101261.97;5059045;28;45620;-49
2021/08/10 09:05:26;;;;;;;;;4.25;4.25;;;;;23.08;52.27;101263.69;5059104;28;45703;-51
2021/08/10 09:07:57;;;;;;;;;6.75;6.00;;;;;23.08;52.76;101263.69;5059140;28;45401;-48
2021/08/10 09:10:28;;;;;;;;;3.50;3.50;;;;;23.11;52.03;101260.84;5059237;28;45522;-55
2021/08/10 09:12:56;;;;;;;;;5.50;5.50;;;;;23.12;52.05;101267.81;5059043;28;45511;-50
2021/08/10 09:15:29;;;;;;;;;3.50;3.50;;;;;23.12;52.06;101259.91;5058792;28;45765;-52
2021/08/10 09:17:55;;;;;;;;;5.00;5.00;;;;;23.14;52.34;101270.41;5059027;28;45407;-55
2021/08/10 09:20:22;;;;;;;;;8.00;4.50;;;;;23.15;52.38;101262.38;5059186;28;45343;-56
2021/08/10 09:22:54;;;;;;;;;6.75;5.00;;;;;23.15;52.16;101265.00;5058758;28;46463;-52
2021/08/10 09:25:21;;;;;;;;;5.50;5.50;;;;;23.17;52.07;101270.19;5059056;28;45658;-52
2021/08/10 09:27:46;;;;;;;;;5.00;5.00;;;;;23.17;52.23;101264.91;5059106;28;45347;-58
2021/08/10 09:30:14;;;;;;;;;6.00;5.00;;;;;23.18;52.09;101263.97;5058919;28;45567;-62
2021/08/10 09:32:51;;;;;;;;;5.50;5.00;;;;;23.20;52.21;101261.28;5058148;28;46574;-56
2021/08/10 09:35:18;;;;;;;;;5.25;4.75;;;;;23.20;52.01;101261.28;5058950;28;45455;-53
2021/08/10 09:38:12;;;;;;;;;6.00;4.50;;;;;23.22;52.28;101262.00;5058931;28;45246;-59
2021/08/10 09:41:15;;;;;;;;;7.00;5.25;;;;;23.24;52.05;101260.13;5056488;28;45206;-55
2021/08/10 09:44:05;;;;;;;;;4.25;4.25;;;;;23.25;52.20;101256.56;5059814;28;46246;-52
2021/08/10 09:46:34;;;;;;;;;5.25;5.25;;;;;23.23;52.00;101242.56;5040466;28;45167;-58
2021/08/10 09:49:01;;;;;;;;;5.75;5.00;;;;;23.24;51.98;101246.91;5060861;28;45534;-59
2021/08/10 09:51:29;;;;;;;;;6.25;6.25;;;;;23.29;52.13;101255.44;5058711;28;45606;-56
2021/08/10 09:54:04;;;;;;;;;4.75;4.75;;;;;23.29;51.87;101252.78;5059007;28;46376;-56
2021/08/10 09:56:52;;;;;;;;;7.00;6.75;;;;;23.30;52.22;101251.84;5059040;28;45704;-61
2021/08/10 09:59:23;;;;;;;;;4.00;4.00;;;;;23.32;51.87;101257.88;5058939;28;45292;-62
2021/08/10 10:01:51;;;;;;;;;7.25;7.25;;;;;23.32;51.99;101249.94;5058565;28;45467;-55
2021/08/10 10:04:26;;;;;;;;;6.50;6.00;;;;;23.32;51.53;101252.59;5058270;28;46471;-49
2021/08/10 10:07:16;;;;;;;;;7.00;6.25;;;;;23.32;51.68;101255.22;5059891;28;45872;-62
2021/08/10 10:09:43;;;;;;;;;4.00;4.00;;;;;23.34;51.45;101256.00;5040083;28;45407;-47
2021/08/10 10:12:09;;;;;;;;;5.75;4.50;;;;;23.36;51.66;101258.56;5058795;28;45452;-59
2021/08/10 10:14:35;;;;;;;;;5.75;5.00;;;;;23.36;51.50;101256.75;5058017;28;45683;-63
2021/08/10 10:17:02;;;;;;;;;6.00;5.00;;;;;23.37;51.35;101255.81;5057931;28;45268;-64
2021/08/10 10:19:29;;;;;;;;;6.00;4.25;;;;;23.39;51.78;101255.72;5058321;28;45720;-55
2021/08/10 10:21:59;;;;;;;;;6.75;6.00;;;;;23.39;51.54;101253.06;5058374;28;45520;-60
2021/08/10 10:24:29;;;;;;;;;8.50;6.00;;;;;23.40;51.36;101255.63;5057990;28;45373;-54
2021/08/10 10:27:03;;;;;;;;;5.25;4.50;;;;;23.39;51.19;101259.22;5057954;28;45356;-45
2021/08/10 10:29:30;;;;;;;;;4.75;4.75;;;;;23.40;51.35;101258.28;5058803;28;45552;-51
2021/08/10 10:31:56;;;;;;;;;6.50;6.00;;;;;23.38;51.12;101257.50;5058038;28;45467;-52
2021/08/10 10:34:22;;;;;;;;;5.25;5.00;;;;;23.40;50.89;101257.41;5057710;28;45534;-44
2021/08/10 10:36:49;;;;;;;;;6.50;6.00;;;;;23.36;51.05;101243.53;5056904;28;45799;-48
2021/08/10 10:39:24;;;;;;;;;5.75;4.75;;;;;23.39;51.35;101240.69;5057728;28;45185;-48
2021/08/10 10:41:53;;;;;;;;;6.50;4.00;;;;;23.41;51.29;101251.19;5057971;28;45216;-55
2021/08/10 10:44:41;;;;;;;;;6.00;6.00;;;;;23.43;51.44;101250.13;5056389;28;47088;-47
2021/08/10 10:47:22;;;;;;;;;7.75;5.00;;;;;23.43;51.20;101239.56;5057591;28;45943;-49
2021/08/10 10:50:13;;;;;;;;;4.25;4.00;;;;;23.41;51.17;101238.81;5057592;28;45261;-50
2021/08/10 10:52:38;;;;;;;;;7.00;5.25;;;;;23.43;51.01;101231.63;5057736;28;45193;-52
2021/08/10 10:55:05;;;;;;;;;7.00;5.25;;;;;23.44;50.92;101243.91;5057451;28;45289;-47
2021/08/10 10:57:33;;;;;;;;;4.50;3.50;;;;;23.45;51.01;101237.66;5057243;28;45769;-53
2021/08/10 11:00:18;;;;;;;;;4.25;4.25;;;;;23.46;51.10;101234.06;5057407;28;45336;-48
2021/08/10 11:03:08;;;;;;;;;5.25;5.00;;;;;23.46;51.05;101235.88;5057785;28;45435;-45
2021/08/10 11:05:33;;;;;;;;;5.75;4.50;;;;;23.45;51.14;101227.09;5057254;28;45266;-48
2021/08/10 11:08:00;;;;;;;;;7.75;5.00;;;;;23.46;50.78;101227.94;5057038;28;45178;-47
2021/08/10 11:10:44;;;;;;;;;6.75;5.00;;;;;23.46;50.91;101228.78;5057288;28;45320;-54
2021/08/10 11:13:21;;;;;;;;;6.25;5.50;;;;;23.46;50.78;101223.50;5057466;28;45415;-46
2021/08/10 11:15:46;;;;;;;;;6.00;4.75;;;;;23.46;51.08;101217.38;5056907;28;45420;-45
2021/08/10 11:18:12;;;;;;;;;5.00;3.50;;;;;23.47;50.97;101229.66;5058073;28;45323;-55
2021/08/10 11:21:21;;;;;;;;;4.00;4.00;;;;;23.47;50.33;101224.38;5058719;28;45438;-51
2021/08/10 11:23:46;;;;;;;;;4.25;4.25;;;;;23.46;50.68;101223.50;5038880;28;45587;-49
2021/08/10 11:26:13;;;;;;;;;6.00;6.00;;;;;23.47;50.45;101227.84;5057312;28;45344;-46
2021/08/10 11:28:47;;;;;;;;;3.75;3.75;;;;;23.48;50.41;101220.78;5056917;28;45436;-50